| time (UTC) | temp C | wind direction | speed KPH | gust KPH | rain 1hr cm | rain 24hr cm | rain mn cm | humidity % | barometer mb |
| 20260904210604 | 22 | 272 | 6.4 | 16.1 | 0.00 | 0.43 | 0.00 | 47 | 1004.4 |
| 20260904210106 | 22 | 280 | 9.7 | 20.9 | 0.00 | 0.43 | 0.00 | 47 | 1004.4 |
| 20260904205605 | 22 | 278 | 4.8 | 14.5 | 0.00 | 0.43 | 0.00 | 47 | 1004.4 |
| 20260904205106 | 22 | 263 | 8.0 | 12.9 | 0.00 | 0.43 | 0.00 | 47 | 1004.4 |
| 20260904204605 | 22 | 288 | 8.0 | 14.5 | 0.00 | 0.43 | 0.00 | 47 | 1004.4 |
| 20260904204106 | 22 | 276 | 6.4 | 12.9 | 0.00 | 0.43 | 0.00 | 47 | 1004.4 |
| 20260904203605 | 22 | 290 | 4.8 | 9.7 | 0.00 | 0.43 | 0.00 | 47 | 1004.4 |
| 20260904203106 | 22 | 290 | 4.8 | 12.9 | 0.00 | 0.43 | 0.00 | 48 | 1004.4 |
| 20260904201606 | 22 | 229 | 9.7 | 20.9 | 0.00 | 0.43 | 0.00 | 50 | 1004.4 |
| 20260904201105 | 21 | 248 | 4.8 | 12.9 | 0.00 | 0.43 | 0.00 | 50 | 1004.4 |
| 20260904200605 | 22 | 290 | 8.0 | 14.5 | 0.00 | 0.43 | 0.00 | 50 | 1004.4 |
| 20260904195605 | 21 | 259 | 4.8 | 14.5 | 0.00 | 0.43 | 0.00 | 52 | 1004.4 |
| 20260904195106 | 21 | 281 | 6.4 | 14.5 | 0.00 | 0.43 | 0.00 | 53 | 1004.4 |
| 20260904194605 | 21 | 257 | 4.8 | 14.5 | 0.00 | 0.43 | 0.00 | 53 | 1004.4 |
| 20260904194105 | 21 | 280 | 6.4 | 12.9 | 0.00 | 0.43 | 0.00 | 52 | 1004.5 |
| 20260904193606 | 21 | 274 | 4.8 | 12.9 | 0.00 | 0.43 | 0.00 | 54 | 1004.4 |
| 20260904193104 | 21 | 239 | 4.8 | 11.3 | 0.00 | 0.43 | 0.00 | 56 | 1004.7 |
| 20260904192604 | 21 | 242 | 4.8 | 11.3 | 0.00 | 0.43 | 0.00 | 58 | 1004.7 |
| 20260904192105 | 21 | 269 | 4.8 | 9.7 | 0.00 | 0.43 | 0.00 | 59 | 1004.7 |
| 20260904191605 | 20 | 268 | 4.8 | 12.9 | 0.00 | 0.43 | 0.00 | 59 | 1004.7 |
| 20260904191105 | 20 | 261 | 4.8 | 12.9 | 0.00 | 0.43 | 0.00 | 60 | 1004.7 |
| 20260904190604 | 20 | 255 | 4.8 | 12.9 | 0.00 | 0.43 | 0.00 | 62 | 1005.0 |
| 20260904190104 | 20 | 215 | 6.4 | 12.9 | 0.00 | 0.43 | 0.00 | 63 | 1004.8 |
| 20260904185606 | 20 | 219 | 4.8 | 14.5 | 0.00 | 0.43 | 0.00 | 63 | 1005.1 |
| 20260904185105 | 20 | 275 | 4.8 | 12.9 | 0.00 | 0.43 | 0.00 | 64 | 1005.1 |
| 20260904184605 | 20 | 275 | 6.4 | 14.5 | 0.00 | 0.43 | 0.00 | 65 | 1005.1 |
| 20260904184105 | 20 | 227 | 4.8 | 16.1 | 0.00 | 0.43 | 0.00 | 65 | 1005.1 |
| 20260904183605 | 20 | 233 | 4.8 | 11.3 | 0.00 | 0.43 | 0.00 | 66 | 1005.1 |
| 20260904183105 | 20 | 244 | 6.4 | 12.9 | 0.00 | 0.43 | 0.00 | 67 | 1005.1 |
| 20260904182605 | 19 | 285 | 3.2 | 11.3 | 0.00 | 0.43 | 0.00 | 68 | 1005.1 |
| 20260904182104 | 19 | 240 | 4.8 | 12.9 | 0.00 | 0.43 | 0.00 | 69 | 1005.1 |
| 20260904181605 | 19 | 317 | 3.2 | 8.0 | 0.00 | 0.43 | 0.00 | 70 | 1005.1 |
| 20260904181105 | 19 | 285 | 3.2 | 9.7 | 0.00 | 0.43 | 0.00 | 71 | 1005.1 |
| 20260904180605 | 19 | 266 | 3.2 | 9.7 | 0.00 | 0.43 | 0.00 | 72 | 1005.1 |
| 20260904180105 | 18 | 284 | 1.6 | 4.8 | 0.00 | 0.43 | 0.00 | 72 | 1005.1 |
| 20260904175605 | 18 | 225 | 8.0 | 12.9 | 0.00 | 0.43 | 0.00 | 73 | 1005.1 |
| 20260904175105 | 18 | 260 | 4.8 | 9.7 | 0.00 | 0.43 | 0.00 | 74 | 1005.1 |
| 20260904174605 | 18 | 276 | 3.2 | 9.7 | 0.00 | 0.43 | 0.00 | 75 | 1005.1 |
| 20260904174105 | 18 | 223 | 6.4 | 12.9 | 0.00 | 0.43 | 0.00 | 76 | 1005.1 |
| 20260904173605 | 18 | 295 | 3.2 | 9.7 | 0.00 | 0.43 | 0.00 | 77 | 1005.1 |
| 20260904173106 | 18 | 272 | 3.2 | 11.3 | 0.00 | 0.43 | 0.00 | 77 | 1005.1 |
| 20260904172605 | 17 | 296 | 3.2 | 9.7 | 0.00 | 0.43 | 0.00 | 78 | 1005.1 |
| 20260904172105 | 17 | 243 | 4.8 | 9.7 | 0.00 | 0.43 | 0.00 | 79 | 1005.1 |
| 20260904171604 | 17 | 272 | 3.2 | 9.7 | 0.00 | 0.43 | 0.00 | 80 | 1005.1 |
| 20260904171105 | 17 | 245 | 4.8 | 9.7 | 0.00 | 0.43 | 0.00 | 80 | 1005.0 |
| 20260904170604 | 17 | 237 | 6.4 | 12.9 | 0.00 | 0.43 | 0.00 | 80 | 1005.1 |
| 20260904170106 | 17 | 238 | 4.8 | 11.3 | 0.00 | 0.43 | 0.00 | 81 | 1005.1 |
| 20260904165604 | 17 | 272 | 4.8 | 9.7 | 0.00 | 0.43 | 0.00 | 82 | 1005.1 |
| 20260904165105 | 17 | 266 | 4.8 | 9.7 | 0.00 | 0.43 | 0.00 | 83 | 1005.1 |
| 20260904164105 | 17 | 286 | 3.2 | 11.3 | 0.00 | 0.43 | 0.00 | 84 | 1004.8 |
| 20260904163606 | 17 | 287 | 3.2 | 8.0 | 0.00 | 0.43 | 0.00 | 83 | 1004.7 |
| 20260904163104 | 17 | 227 | 4.8 | 11.3 | 0.00 | 0.43 | 0.00 | 83 | 1004.7 |
| 20260904162605 | 17 | 242 | 3.2 | 11.3 | 0.00 | 0.43 | 0.00 | 84 | 1004.7 |
| 20260904162104 | 17 | 239 | 3.2 | 4.8 | 0.00 | 0.43 | 0.00 | 85 | 1004.7 |
| 20260904161104 | 16 | 155 | 0.0 | 8.0 | 0.00 | 0.43 | 0.00 | 88 | 1004.5 |
| 20260904160604 | 16 | 202 | 1.6 | 8.0 | 0.00 | 0.43 | 0.00 | 89 | 1004.7 |
| 20260904160105 | 16 | 202 | 3.2 | 8.0 | 0.00 | 0.43 | 0.00 | 90 | 1004.4 |
| 20260904155105 | 16 | 198 | 1.6 | 3.2 | 0.00 | 0.43 | 0.00 | 92 | 1004.7 |
| 20260904154106 | 15 | 223 | 3.2 | 4.8 | 0.00 | 0.43 | 0.00 | 94 | 1004.7 |
| 20260904153605 | 15 | 135 | 0.0 | 3.2 | 0.00 | 0.43 | 0.00 | 95 | 1004.7 |
| 20260904153104 | 15 | 211 | 3.2 | 4.8 | 0.00 | 0.43 | 0.00 | 95 | 1004.4 |
| 20260904152605 | 15 | 228 | 0.0 | 4.8 | 0.00 | 0.43 | 0.00 | 95 | 1004.7 |
| 20260904152105 | 14 | 192 | 0.0 | 4.8 | 0.00 | 0.43 | 0.00 | 96 | 1004.5 |
| 20260904151604 | 14 | 161 | 0.0 | 4.8 | 0.00 | 0.43 | 0.00 | 96 | 1004.7 |
| 20260904151104 | 14 | 225 | 1.6 | 4.8 | 0.00 | 0.43 | 0.00 | 96 | 1004.4 |
| 20260904150605 | 14 | 249 | 0.0 | 8.0 | 0.00 | 0.43 | 0.00 | 96 | 1004.4 |
| 20260904150104 | 14 | 280 | 0.0 | 3.2 | 0.00 | 0.43 | 0.00 | 96 | 1004.4 |
| 20260904144605 | 13 | 21 | 0.0 | 0.0 | 0.00 | 0.43 | 0.00 | 96 | 1004.4 |
| 20260904144105 | 13 | 22 | 0.0 | 0.0 | 0.00 | 0.43 | 0.00 | 96 | 1004.4 |
| 20260904143604 | 13 | 45 | 0.0 | 0.0 | 0.00 | 0.43 | 0.00 | 96 | 1004.4 |
| 20260904143104 | 13 | 45 | 0.0 | 0.0 | 0.00 | 0.43 | 0.00 | 96 | 1004.3 |
| 20260904142604 | 13 | 45 | 0.0 | 0.0 | 0.00 | 0.43 | 0.00 | 96 | 1004.1 |
| 20260904141604 | 13 | 135 | 0.0 | 0.0 | 0.00 | 0.43 | 0.00 | 96 | 1004.1 |
| 20260904141105 | 13 | 135 | 0.0 | 1.6 | 0.00 | 0.43 | 0.00 | 96 | 1004.1 |
| 20260904140605 | 13 | 129 | 0.0 | 0.0 | 0.00 | 0.43 | 0.00 | 96 | 1003.7 |
| 20260904140105 | 13 | 67 | 0.0 | 3.2 | 0.00 | 0.43 | 0.00 | 96 | 1003.7 |
| 20260904135604 | 13 | 90 | 0.0 | 1.6 | 0.00 | 0.43 | 0.00 | 96 | 1003.7 |
| 20260904135105 | 13 | 112 | 0.0 | 0.0 | 0.00 | 0.43 | 0.00 | 96 | 1003.4 |
| 20260904134604 | 13 | 121 | 0.0 | 3.2 | 0.00 | 0.43 | 0.00 | 96 | 1003.4 |
| 20260904134105 | 13 | 112 | 0.0 | 1.6 | 0.00 | 0.43 | 0.00 | 96 | 1003.4 |
| 20260904132605 | 13 | 157 | 0.0 | 3.2 | 0.00 | 0.43 | 0.00 | 96 | 1003.4 |
| 20260904132104 | 13 | 157 | 0.0 | 3.2 | 0.00 | 0.43 | 0.00 | 96 | 1003.4 |
| 20260904131604 | 13 | 157 | 0.0 | 3.2 | 0.00 | 0.43 | 0.00 | 96 | 1003.4 |
| 20260904131105 | 13 | 112 | 0.0 | 1.6 | 0.00 | 0.43 | 0.00 | 96 | 1003.4 |
| 20260904130605 | 13 | 135 | 0.0 | 4.8 | 0.00 | 0.43 | 0.00 | 96 | 1003.0 |
| 20260904130105 | 13 | 157 | 0.0 | 3.2 | 0.00 | 0.43 | 0.00 | 96 | 1003.4 |
| 20260904125604 | 13 | 135 | 0.0 | 1.6 | 0.00 | 0.43 | 0.00 | 96 | 1003.3 |
| 20260904125104 | 13 | 135 | 0.0 | 1.6 | 0.00 | 0.43 | 0.00 | 96 | 1003.0 |
| 20260904124605 | 13 | 135 | 0.0 | 3.2 | 0.00 | 0.43 | 0.00 | 96 | 1003.0 |
| 20260904124104 | 13 | 153 | 0.0 | 4.8 | 0.00 | 0.43 | 0.00 | 95 | 1003.1 |
| 20260904123604 | 13 | 157 | 0.0 | 3.2 | 0.00 | 0.43 | 0.00 | 95 | 1003.0 |
| 20260904123104 | 13 | 135 | 0.0 | 0.0 | 0.00 | 0.43 | 0.00 | 95 | 1003.0 |
| 20260904122605 | 13 | 135 | 0.0 | 0.0 | 0.00 | 0.43 | 0.00 | 95 | 1003.0 |
| 20260904122104 | 13 | 135 | 0.0 | 0.0 | 0.00 | 0.43 | 0.00 | 95 | 1003.0 |
| 20260904121605 | 13 | 135 | 0.0 | 0.0 | 0.00 | 0.43 | 0.00 | 95 | 1003.0 |
| 20260904120604 | 13 | 149 | 0.0 | 1.6 | 0.00 | 0.43 | 0.00 | 95 | 1003.0 |
| 20260904120104 | 13 | 157 | 0.0 | 4.8 | 0.00 | 0.43 | 0.00 | 95 | 1003.0 |
| 20260904115604 | 13 | 45 | 1.6 | 3.2 | 0.00 | 0.43 | 0.00 | 95 | 1003.0 |
| 20260904114605 | 13 | 112 | 0.0 | 0.0 | 0.00 | 0.43 | 0.00 | 95 | 1003.0 |
| 20260904114104 | 13 | 112 | 0.0 | 1.6 | 0.00 | 0.43 | 0.00 | 95 | 1003.0 |
| 20260904113605 | 13 | 78 | 0.0 | 1.6 | 0.00 | 0.43 | 0.00 | 95 | 1003.0 |
| 20260904113104 | 13 | 75 | 0.0 | 4.8 | 0.00 | 0.43 | 0.00 | 95 | 1003.0 |
| 20260904112604 | 13 | 82 | 0.0 | 0.0 | 0.00 | 0.43 | 0.00 | 95 | 1003.0 |
| 20260904112104 | 14 | 67 | 0.0 | 1.6 | 0.00 | 0.43 | 0.00 | 95 | 1003.0 |
| 20260904111605 | 13 | 67 | 0.0 | 3.2 | 0.00 | 0.43 | 0.00 | 95 | 1003.0 |
| 20260904110604 | 13 | 19 | 0.0 | 0.0 | 0.00 | 0.43 | 0.00 | 95 | 1003.0 |
| 20260904110104 | 13 | 0 | 0.0 | 0.0 | 0.00 | 0.43 | 0.00 | 94 | 1003.0 |
| 20260904105604 | 14 | 0 | 0.0 | 0.0 | 0.00 | 0.43 | 0.00 | 94 | 1003.0 |
| 20260904105105 | 14 | 247 | 0.0 | 0.0 | 0.00 | 0.43 | 0.00 | 94 | 1003.0 |
| 20260904104604 | 14 | 90 | 0.0 | 3.2 | 0.00 | 0.43 | 0.00 | 94 | 1003.0 |
| 20260904102604 | 14 | 337 | 0.0 | 0.0 | 0.00 | 0.43 | 0.00 | 94 | 1003.0 |
| 20260904102104 | 14 | 337 | 0.0 | 0.0 | 0.00 | 0.43 | 0.00 | 94 | 1003.0 |
| 20260904101605 | 15 | 337 | 0.0 | 0.0 | 0.00 | 0.43 | 0.00 | 94 | 1002.7 |
| 20260904101104 | 15 | 337 | 0.0 | 0.0 | 0.00 | 0.43 | 0.00 | 94 | 1002.7 |
| 20260904100104 | 15 | 202 | 0.0 | 0.0 | 0.00 | 0.43 | 0.00 | 94 | 1003.0 |
| 20260904095605 | 15 | 202 | 0.0 | 0.0 | 0.00 | 0.43 | 0.00 | 94 | 1003.0 |
| 20260904095104 | 15 | 202 | 0.0 | 0.0 | 0.00 | 0.43 | 0.00 | 94 | 1003.0 |
| 20260904094104 | 15 | 247 | 0.0 | 0.0 | 0.00 | 0.43 | 0.00 | 94 | 1002.7 |
| 20260904093604 | 15 | 247 | 0.0 | 0.0 | 0.00 | 0.43 | 0.00 | 94 | 1002.7 |
| 20260904093104 | 15 | 247 | 0.0 | 0.0 | 0.00 | 0.43 | 0.00 | 94 | 1002.7 |
| 20260904092604 | 15 | 247 | 0.0 | 0.0 | 0.00 | 0.43 | 0.00 | 94 | 1002.7 |
| 20260904092104 | 15 | 247 | 0.0 | 3.2 | 0.00 | 0.43 | 0.00 | 94 | 1002.7 |
| 20260904091604 | 15 | 247 | 0.0 | 3.2 | 0.00 | 0.43 | 0.00 | 94 | 1003.0 |
| 20260904091103 | 16 | 247 | 0.0 | 4.8 | 0.00 | 0.43 | 0.00 | 94 | 1002.7 |
| 20260904090604 | 16 | 315 | 0.0 | 0.0 | 0.00 | 0.43 | 0.00 | 94 | 1002.7 |
| 20260904090104 | 16 | 315 | 0.0 | 0.0 | 0.00 | 0.43 | 0.00 | 94 | 1002.7 |
| 20260904085603 | 16 | 315 | 0.0 | 0.0 | 0.00 | 0.43 | 0.00 | 94 | 1002.7 |
| 20260904084604 | 16 | 315 | 0.0 | 0.0 | 0.00 | 0.43 | 0.00 | 94 | 1002.7 |
| 20260904084104 | 16 | 315 | 0.0 | 0.0 | 0.00 | 0.43 | 0.00 | 94 | 1002.7 |
| 20260904083604 | 16 | 315 | 0.0 | 0.0 | 0.00 | 0.43 | 0.00 | 94 | 1002.7 |
| 20260904083105 | 16 | 315 | 0.0 | 0.0 | 0.00 | 0.43 | 0.00 | 94 | 1002.7 |
| 20260904082604 | 16 | 315 | 0.0 | 0.0 | 0.00 | 0.43 | 0.00 | 94 | 1002.7 |
| 20260904082104 | 16 | 315 | 0.0 | 0.0 | 0.00 | 0.43 | 0.00 | 94 | 1002.7 |
| 20260904081604 | 16 | 315 | 0.0 | 0.0 | 0.00 | 0.43 | 0.00 | 94 | 1002.7 |
| 20260904081104 | 16 | 315 | 0.0 | 0.0 | 0.00 | 0.43 | 0.00 | 94 | 1002.7 |
| 20260904080104 | 16 | 284 | 1.6 | 8.0 | 0.00 | 0.43 | 0.00 | 94 | 1002.7 |
| 20260904075604 | 16 | 246 | 1.6 | 8.0 | 0.00 | 0.43 | 0.00 | 95 | 1002.7 |
| 20260904075104 | 16 | 247 | 1.6 | 3.2 | 0.00 | 0.43 | 0.00 | 95 | 1002.7 |
| 20260904074604 | 16 | 249 | 3.2 | 4.8 | 0.00 | 0.43 | 0.00 | 95 | 1002.7 |
| 20260904074103 | 16 | 202 | 4.8 | 8.0 | 0.00 | 0.43 | 0.00 | 95 | 1002.7 |
| 20260904073104 | 16 | 337 | 0.0 | 0.0 | 0.00 | 0.43 | 0.00 | 95 | 1002.4 |
| 20260904072103 | 16 | 337 | 0.0 | 0.0 | 0.00 | 0.43 | 0.00 | 94 | 1002.7 |
| 20260904071604 | 16 | 337 | 0.0 | 0.0 | 0.00 | 0.43 | 0.00 | 94 | 1002.4 |
| 20260904071105 | 16 | 337 | 0.0 | 0.0 | 0.00 | 0.43 | 0.00 | 94 | 1002.4 |
| 20260904070603 | 16 | 337 | 0.0 | 0.0 | 0.00 | 0.43 | 0.00 | 94 | 1002.4 |
| 20260904070104 | 16 | 337 | 0.0 | 0.0 | 0.00 | 0.43 | 0.00 | 94 | 1002.4 |
| 20260904065604 | 16 | 67 | 0.0 | 0.0 | 0.00 | 0.43 | 0.43 | 94 | 1002.4 |
| 20260904065104 | 16 | 67 | 0.0 | 0.0 | 0.00 | 0.43 | 0.43 | 94 | 1002.4 |
| 20260904064603 | 16 | 67 | 0.0 | 1.6 | 0.00 | 0.43 | 0.43 | 94 | 1002.4 |
| 20260904064103 | 16 | 67 | 0.0 | 3.2 | 0.00 | 0.43 | 0.43 | 94 | 1002.4 |
| 20260904063604 | 16 | 67 | 1.6 | 1.6 | 0.00 | 0.43 | 0.43 | 95 | 1002.4 |
| 20260904063103 | 16 | 67 | 0.0 | 1.6 | 0.00 | 0.43 | 0.43 | 95 | 1002.4 |
| 20260904061606 | 16 | 216 | 0.0 | 1.6 | 0.00 | 0.43 | 0.43 | 95 | 1002.4 |
| 20260904061106 | 16 | 20 | 1.6 | 8.0 | 0.00 | 0.43 | 0.43 | 95 | 1002.4 |
| 20260904060605 | 16 | 247 | 0.0 | 0.0 | 0.00 | 0.43 | 0.43 | 95 | 1002.4 |
| 20260904060105 | 16 | 271 | 0.0 | 0.0 | 0.00 | 0.43 | 0.43 | 95 | 1002.4 |
| 20260904055605 | 16 | 292 | 0.0 | 0.0 | 0.00 | 0.43 | 0.43 | 95 | 1002.4 |
| 20260904055106 | 16 | 292 | 0.0 | 0.0 | 0.00 | 0.43 | 0.43 | 95 | 1002.4 |
| 20260904054606 | 16 | 270 | 0.0 | 4.8 | 0.00 | 0.43 | 0.43 | 95 | 1002.4 |
| 20260904054105 | 16 | 256 | 1.6 | 4.8 | 0.03 | 0.43 | 0.43 | 95 | 1002.4 |
| 20260904053606 | 16 | 250 | 3.2 | 8.0 | 0.05 | 0.43 | 0.43 | 95 | 1002.4 |
| 20260904053106 | 16 | 252 | 4.8 | 12.9 | 0.05 | 0.43 | 0.43 | 95 | 1002.4 |
| 20260904052606 | 16 | 255 | 3.2 | 12.9 | 0.08 | 0.43 | 0.43 | 95 | 1002.7 |
| 20260904052106 | 16 | 250 | 4.8 | 11.3 | 0.10 | 0.43 | 0.43 | 95 | 1002.7 |
| 20260904051605 | 16 | 241 | 3.2 | 9.7 | 0.13 | 0.43 | 0.43 | 95 | 1002.7 |
| 20260904051105 | 16 | 292 | 1.6 | 3.2 | 0.13 | 0.43 | 0.43 | 95 | 1002.7 |
| 20260904050606 | 15 | 315 | 1.6 | 8.0 | 0.15 | 0.43 | 0.43 | 95 | 1002.7 |
| 20260904050105 | 15 | 280 | 0.0 | 12.9 | 0.18 | 0.43 | 0.43 | 95 | 1002.7 |
| 20260904045105 | 15 | 211 | 3.2 | 8.0 | 0.23 | 0.43 | 0.43 | 95 | 1003.0 |
| 20260904044605 | 15 | 230 | 3.2 | 8.0 | 0.25 | 0.43 | 0.43 | 95 | 1003.0 |
| 20260904044105 | 15 | 241 | 4.8 | 16.1 | 0.23 | 0.41 | 0.41 | 95 | 1003.0 |
| 20260904043606 | 16 | 218 | 1.6 | 9.7 | 0.20 | 0.38 | 0.38 | 95 | 1003.0 |
| 20260904042605 | 16 | 258 | 1.6 | 4.8 | 0.18 | 0.36 | 0.36 | 95 | 1003.0 |
| 20260904042105 | 16 | 277 | 3.2 | 12.9 | 0.15 | 0.33 | 0.33 | 95 | 1002.7 |
| 20260904041605 | 16 | 226 | 3.2 | 9.7 | 0.13 | 0.30 | 0.30 | 94 | 1002.7 |
| 20260904041105 | 16 | 210 | 1.6 | 3.2 | 0.13 | 0.30 | 0.30 | 94 | 1002.7 |
| 20260904040606 | 16 | 249 | 1.6 | 8.0 | 0.13 | 0.28 | 0.28 | 94 | 1002.7 |
| 20260904040106 | 16 | 259 | 3.2 | 8.0 | 0.10 | 0.25 | 0.25 | 94 | 1002.7 |
| 20260904035605 | 16 | 237 | 1.6 | 8.0 | 0.08 | 0.23 | 0.23 | 94 | 1002.7 |
| 20260904035105 | 16 | 247 | 3.2 | 8.0 | 0.08 | 0.20 | 0.20 | 94 | 1002.7 |
| 20260904034605 | 16 | 235 | 3.2 | 8.0 | 0.08 | 0.18 | 0.18 | 94 | 1002.7 |
| 20260904034105 | 16 | 258 | 1.6 | 8.0 | 0.10 | 0.18 | 0.18 | 94 | 1002.7 |
| 20260904033605 | 16 | 260 | 1.6 | 8.0 | 0.10 | 0.18 | 0.18 | 94 | 1002.7 |
| 20260904033105 | 16 | 271 | 1.6 | 4.8 | 0.13 | 0.18 | 0.18 | 94 | 1002.4 |
| 20260904032106 | 16 | 231 | 3.2 | 14.5 | 0.18 | 0.18 | 0.18 | 93 | 1002.4 |
| 20260904031606 | 16 | 257 | 4.8 | 9.7 | 0.18 | 0.18 | 0.18 | 93 | 1002.4 |
| 20260904031105 | 16 | 243 | 4.8 | 11.3 | 0.18 | 0.18 | 0.18 | 93 | 1002.4 |
| 20260904030605 | 16 | 257 | 4.8 | 9.7 | 0.15 | 0.15 | 0.15 | 93 | 1002.4 |
| 20260904030105 | 16 | 254 | 3.2 | 8.0 | 0.15 | 0.15 | 0.15 | 92 | 1002.4 |
| 20260904025605 | 16 | 241 | 4.8 | 11.3 | 0.15 | 0.15 | 0.15 | 92 | 1002.4 |
| 20260904025106 | 16 | 249 | 4.8 | 11.3 | 0.13 | 0.13 | 0.13 | 91 | 1002.4 |
| 20260904024107 | 16 | 266 | 3.2 | 8.0 | 0.08 | 0.08 | 0.08 | 90 | 1002.4 |
| 20260904023605 | 16 | 268 | 4.8 | 14.5 | 0.08 | 0.08 | 0.08 | 90 | 1002.7 |
| 20260904023105 | 16 | 252 | 3.2 | 9.7 | 0.05 | 0.05 | 0.05 | 89 | 1002.4 |
| 20260904022604 | 17 | 264 | 3.2 | 9.7 | 0.03 | 0.03 | 0.03 | 88 | 1002.4 |
| 20260904022105 | 17 | 280 | 3.2 | 8.0 | 0.00 | 0.00 | 0.00 | 87 | 1002.4 |
| 20260904021606 | 17 | 273 | 4.8 | 9.7 | 0.00 | 0.00 | 0.00 | 86 | 1002.4 |
| 20260904020605 | 18 | 284 | 3.2 | 8.0 | 0.00 | 0.00 | 0.00 | 84 | 1002.7 |
| 20260904020107 | 18 | 290 | 3.2 | 4.8 | 0.00 | 0.00 | 0.00 | 83 | 1002.7 |
| 20260904015107 | 19 | 263 | 3.2 | 8.0 | 0.00 | 0.00 | 0.00 | 82 | 1002.7 |
| 20260904014605 | 19 | 225 | 0.0 | 3.2 | 0.00 | 0.00 | 0.00 | 81 | 1002.4 |
| 20260904014106 | 19 | 255 | 3.2 | 9.7 | 0.00 | 0.00 | 0.00 | 80 | 1002.4 |
| 20260904013605 | 20 | 217 | 1.6 | 8.0 | 0.00 | 0.00 | 0.00 | 79 | 1002.4 |
| 20260904012605 | 20 | 246 | 3.2 | 12.9 | 0.00 | 0.00 | 0.00 | 78 | 1002.4 |
| 20260904012104 | 20 | 234 | 3.2 | 11.3 | 0.00 | 0.00 | 0.00 | 77 | 1002.4 |
| 20260904011605 | 20 | 247 | 3.2 | 8.0 | 0.00 | 0.00 | 0.00 | 76 | 1002.7 |
| 20260904011105 | 20 | 236 | 4.8 | 20.9 | 0.00 | 0.00 | 0.00 | 76 | 1002.4 |
| 20260904010606 | 20 | 229 | 4.8 | 11.3 | 0.00 | 0.00 | 0.00 | 76 | 1002.4 |
| 20260904010107 | 20 | 247 | 3.2 | 9.7 | 0.00 | 0.00 | 0.00 | 75 | 1002.7 |
| 20260904005605 | 20 | 221 | 4.8 | 9.7 | 0.00 | 0.00 | 0.00 | 74 | 1002.7 |
| 20260904005106 | 20 | 250 | 4.8 | 12.9 | 0.00 | 0.00 | 0.00 | 73 | 1002.4 |
| 20260904004605 | 20 | 241 | 3.2 | 11.3 | 0.00 | 0.00 | 0.00 | 73 | 1002.4 |
| 20260904004105 | 20 | 241 | 4.8 | 11.3 | 0.00 | 0.00 | 0.00 | 73 | 1002.4 |
| 20260904002606 | 20 | 152 | 3.2 | 9.7 | 0.00 | 0.00 | 0.00 | 71 | 1002.4 |
| 20260904002105 | 20 | 244 | 4.8 | 11.3 | 0.00 | 0.00 | 0.00 | 71 | 1002.4 |
| 20260904001105 | 21 | 273 | 3.2 | 11.3 | 0.00 | 0.00 | 0.00 | 71 | 1002.4 |
| 20260904000105 | 21 | 225 | 4.8 | 11.3 | 0.00 | 0.00 | 0.00 | 71 | 1002.7 |
| 20260903235605 | 21 | 226 | 4.8 | 16.1 | 0.00 | 0.00 | 0.00 | 70 | 1002.4 |
| 20260903235106 | 21 | 227 | 3.2 | 9.7 | 0.00 | 0.00 | 0.00 | 70 | 1002.4 |
| 20260903234604 | 21 | 207 | 4.8 | 12.9 | 0.00 | 0.00 | 0.00 | 69 | 1002.4 |
| 20260903234105 | 21 | 246 | 4.8 | 12.9 | 0.00 | 0.00 | 0.00 | 68 | 1002.7 |
| 20260903233605 | 21 | 240 | 4.8 | 11.3 | 0.00 | 0.00 | 0.00 | 67 | 1002.7 |
| 20260903233105 | 21 | 263 | 4.8 | 12.9 | 0.00 | 0.00 | 0.00 | 67 | 1002.7 |
| 20260903232605 | 21 | 247 | 3.2 | 9.7 | 0.00 | 0.00 | 0.00 | 67 | 1002.4 |
| 20260903232106 | 21 | 241 | 3.2 | 11.3 | 0.00 | 0.00 | 0.00 | 66 | 1002.7 |
| 20260903231606 | 21 | 241 | 6.4 | 12.9 | 0.00 | 0.00 | 0.00 | 65 | 1002.7 |
| 20260903231105 | 22 | 242 | 8.0 | 14.5 | 0.00 | 0.00 | 0.00 | 64 | 1002.7 |
| 20260903230606 | 22 | 232 | 4.8 | 12.9 | 0.00 | 0.00 | 0.00 | 64 | 1002.7 |
| 20260903230105 | 22 | 225 | 4.8 | 12.9 | 0.00 | 0.00 | 0.00 | 64 | 1003.0 |
| 20260903225605 | 22 | 254 | 4.8 | 11.3 | 0.00 | 0.00 | 0.00 | 63 | 1003.0 |
| 20260903224605 | 22 | 235 | 8.0 | 14.5 | 0.00 | 0.00 | 0.00 | 62 | 1003.0 |
| 20260903224106 | 23 | 232 | 4.8 | 11.3 | 0.00 | 0.00 | 0.00 | 62 | 1003.0 |
| 20260903223605 | 23 | 153 | 3.2 | 12.9 | 0.00 | 0.00 | 0.00 | 62 | 1003.0 |
| 20260903223105 | 23 | 230 | 4.8 | 12.9 | 0.00 | 0.00 | 0.00 | 61 | 1003.0 |
| 20260903222605 | 23 | 239 | 4.8 | 14.5 | 0.00 | 0.00 | 0.00 | 60 | 1003.0 |
| 20260903222104 | 23 | 236 | 4.8 | 12.9 | 0.00 | 0.00 | 0.00 | 61 | 1003.0 |
| 20260903221605 | 23 | 214 | 8.0 | 12.9 | 0.00 | 0.00 | 0.00 | 61 | 1003.0 |
| 20260903221105 | 23 | 227 | 8.0 | 22.5 | 0.00 | 0.00 | 0.00 | 61 | 1003.4 |
| 20260903220605 | 23 | 238 | 8.0 | 14.5 | 0.00 | 0.00 | 0.00 | 61 | 1003.3 |
| 20260903220104 | 23 | 247 | 8.0 | 14.5 | 0.00 | 0.00 | 0.00 | 62 | 1003.3 |
| 20260903214605 | 23 | 211 | 4.8 | 12.9 | 0.00 | 0.00 | 0.00 | 63 | 1003.4 |
| 20260903213604 | 23 | 230 | 4.8 | 12.9 | 0.00 | 0.00 | 0.00 | 63 | 1003.4 |
| 20260903213104 | 23 | 192 | 3.2 | 12.9 | 0.00 | 0.00 | 0.00 | 63 | 1003.4 |
| 20260903212605 | 23 | 216 | 4.8 | 12.9 | 0.00 | 0.00 | 0.00 | 63 | 1003.4 |
| 20260903212106 | 23 | 186 | 1.6 | 8.0 | 0.00 | 0.00 | 0.00 | 63 | 1003.7 |
| 20260903211606 | 22 | 230 | 3.2 | 11.3 | 0.00 | 0.00 | 0.00 | 64 | 1003.7 |
| 20260903211105 | 22 | 210 | 3.2 | 11.3 | 0.00 | 0.00 | 0.00 | 64 | 1003.7 |